Time;durP1;ratioP1;P1;durP2;ratioP2;P2;SDS_P1;SDS_P2;PMS_P1;PMS_P2;Temp;Humidity;BMP_temperature;BMP_pressure;BME280_temperature;BME280_humidity;BME280_pressure;Samples;Min_cycle;Max_cycle;Signal;HPM_P1;HPM_P2
2021/09/20 00:01:41;;;;;;;7.82;4.55;;;436.00;2355.20;;;;;;5095469;28;20039;-64
2021/09/20 00:04:06;;;;;;;6.68;4.57;;;435.90;2355.20;;;;;;5095343;28;20028;-64
2021/09/20 00:06:32;;;;;;;5.18;4.20;;;435.80;2355.20;;;;;;5095101;28;20107;-66
2021/09/20 00:08:58;;;;;;;6.47;4.65;;;435.80;2355.20;;;;;;5076414;28;20020;-64
2021/09/20 00:11:24;;;;;;;15.02;4.75;;;435.80;2355.20;;;;;;5094968;28;20027;-64
2021/09/20 00:13:49;;;;;;;5.47;4.25;;;435.70;2355.20;;;;;;5076836;28;20028;-66
2021/09/20 00:16:15;;;;;;;8.05;4.57;;;435.70;2355.20;;;;;;5095409;28;20440;-66
2021/09/20 00:18:41;;;;;;;8.07;4.68;;;435.70;2355.20;;;;;;5077184;28;20023;-68
2021/09/20 00:21:06;;;;;;;7.20;4.80;;;435.60;2355.20;;;;;;5078169;28;20044;-65
2021/09/20 00:23:32;;;;;;;7.80;4.45;;;435.70;2355.20;;;;;;5096550;28;20058;-65
2021/09/20 00:25:59;;;;;;;6.30;4.13;;;435.70;2355.20;;;;;;5078054;28;20089;-64
2021/09/20 00:28:27;;;;;;;6.57;4.13;;;435.60;2355.20;;;;;;5096411;28;20414;-68
2021/09/20 00:30:53;;;;;;;7.63;4.55;;;435.60;2355.20;;;;;;5078167;28;20035;-65
2021/09/20 00:33:19;;;;;;;6.53;4.50;;;435.50;2355.20;;;;;;5096187;28;20103;-64
2021/09/20 00:35:45;;;;;;;6.03;4.65;;;435.50;2355.20;;;;;;5096014;28;20032;-64
2021/09/20 00:38:11;;;;;;;7.18;4.50;;;435.50;2355.20;;;;;;5096002;28;20032;-65
2021/09/20 00:40:37;;;;;;;6.40;4.80;;;435.40;2355.20;;;;;;5096377;28;20035;-66
2021/09/20 00:43:03;;;;;;;7.90;5.00;;;435.40;2355.20;;;;;;5096133;28;20061;-64
2021/09/20 00:45:29;;;;;;;7.22;4.70;;;435.30;2355.20;;;;;;5077931;28;20024;-71
2021/09/20 00:47:55;;;;;;;6.28;4.65;;;435.30;2355.20;;;;;;5096055;28;20032;-65
2021/09/20 00:50:21;;;;;;;6.80;5.32;;;435.30;2355.20;;;;;;5095955;28;20021;-68
2021/09/20 00:52:47;;;;;;;6.55;5.20;;;435.30;2355.20;;;;;;5095589;28;20032;-66
2021/09/20 00:55:13;;;;;;;7.22;4.90;;;435.20;2355.20;;;;;;5095732;28;20504;-65
2021/09/20 00:57:44;;;;;;;6.10;4.70;;;435.20;2355.20;;;;;;5096007;28;20020;-64
2021/09/20 01:00:11;;;;;;;8.70;5.20;;;435.20;2355.20;;;;;;5076805;28;20036;-64
2021/09/20 01:02:36;;;;;;;6.28;5.07;;;410.40;2355.20;;;;;;5095917;28;20374;-64
2021/09/20 01:05:03;;;;;;;7.28;5.00;;;410.40;2355.20;;;;;;5077285;28;20035;-65
2021/09/20 01:07:29;;;;;;;6.53;5.15;;;410.30;2355.20;;;;;;5077330;28;20040;-65
2021/09/20 01:09:55;;;;;;;9.65;5.22;;;410.20;2355.20;;;;;;5095368;28;20382;-64
2021/09/20 01:12:21;;;;;;;7.45;5.93;;;410.10;2355.20;;;;;;5076673;28;20126;-63
2021/09/20 01:14:47;;;;;;;9.52;5.85;;;410.10;2355.20;;;;;;5094681;28;20020;-64
2021/09/20 01:17:12;;;;;;;9.05;6.40;;;410.00;2355.20;;;;;;5094367;28;20031;-65
2021/09/20 01:19:38;;;;;;;8.52;5.75;;;410.00;2355.20;;;;;;5093919;28;20412;-66
2021/09/20 01:22:12;;;;;;;7.55;6.00;;;409.90;2355.20;;;;;;5092716;28;20044;-68
2021/09/20 01:24:38;;;;;;;8.95;5.97;;;409.80;2355.20;;;;;;5093233;28;20051;-63
2021/09/20 01:27:05;;;;;;;8.35;6.30;;;409.80;2355.20;;;;;;5094365;28;20060;-67
2021/09/20 01:29:31;;;;;;;9.90;6.75;;;409.70;2355.20;;;;;;5094409;28;20095;-64
2021/09/20 01:31:58;;;;;;;9.68;6.95;;;409.70;2355.20;;;;;;5094404;28;20023;-66
2021/09/20 01:34:25;;;;;;;10.15;6.97;;;409.70;2355.20;;;;;;5094454;28;20369;-66
2021/09/20 01:36:54;;;;;;;9.07;6.63;;;409.70;2355.20;;;;;;5094291;28;20016;-65
2021/09/20 01:39:22;;;;;;;9.18;6.95;;;409.60;2355.20;;;;;;5094756;28;20035;-66
2021/09/20 01:41:49;;;;;;;9.10;7.00;;;409.70;2355.20;;;;;;5094261;28;20112;-68
2021/09/20 01:44:15;;;;;;;10.23;7.03;;;409.60;2355.20;;;;;;5094303;28;20024;-65
2021/09/20 01:46:52;;;;;;;9.40;7.30;;;409.60;2355.20;;;;;;5093134;28;20032;-65
2021/09/20 01:49:19;;;;;;;9.45;7.07;;;409.60;2355.20;;;;;;5091592;28;20044;-66
2021/09/20 01:51:45;;;;;;;9.60;7.00;;;409.60;2355.20;;;;;;5093539;28;20412;-65
2021/09/20 01:54:11;;;;;;;9.90;7.50;;;384.90;2329.60;;;;;;5085386;28;20019;-64
2021/09/20 01:56:38;;;;;;;9.68;7.30;;;384.90;2329.60;;;;;;5093335;28;20127;-65
2021/09/20 01:59:04;;;;;;;12.02;8.75;;;384.80;2329.60;;;;;;5093160;28;20111;-64
2021/09/20 02:01:30;;;;;;;14.82;9.20;;;384.80;2329.60;;;;;;5090517;28;20107;-64
2021/09/20 02:03:56;;;;;;;9.75;7.78;;;384.80;2329.60;;;;;;5093040;28;20107;-65
2021/09/20 02:06:23;;;;;;;12.02;8.52;;;384.80;2329.60;;;;;;5092858;28;20081;-64
2021/09/20 02:08:50;;;;;;;12.32;9.52;;;384.80;2329.60;;;;;;5092974;28;20103;-65
2021/09/20 02:11:17;;;;;;;10.35;7.95;;;384.70;2329.60;;;;;;5093076;28;20511;-68
2021/09/20 02:13:43;;;;;;;10.23;7.78;;;384.80;2329.60;;;;;;5093931;28;20103;-64
2021/09/20 02:16:09;;;;;;;10.65;8.10;;;384.70;2329.60;;;;;;5094291;28;20422;-64
2021/09/20 02:18:39;;;;;;;12.15;8.52;;;384.70;2329.60;;;;;;5093838;28;20044;-66
2021/09/20 02:21:05;;;;;;;12.70;8.00;;;384.70;2329.60;;;;;;5094122;28;20458;-64
2021/09/20 02:23:31;;;;;;;9.63;7.72;;;384.70;2329.60;;;;;;5076060;28;20031;-66
2021/09/20 02:25:59;;;;;;;9.80;7.70;;;384.80;2329.60;;;;;;5093979;28;20020;-64
2021/09/20 02:28:25;;;;;;;10.50;7.70;;;384.80;2329.60;;;;;;5093982;28;20028;-64
2021/09/20 02:30:50;;;;;;;10.27;7.90;;;384.80;2329.60;;;;;;5093900;28;20024;-66
2021/09/20 02:33:16;;;;;;;9.48;7.53;;;384.80;2329.60;;;;;;5094029;28;20024;-63
2021/09/20 02:35:42;;;;;;;10.40;7.28;;;384.80;2329.60;;;;;;5094017;28;20102;-64
2021/09/20 02:38:08;;;;;;;11.25;7.78;;;384.80;2329.60;;;;;;5093698;28;20020;-65
2021/09/20 02:40:33;;;;;;;11.50;7.90;;;384.70;2329.60;;;;;;5094482;28;20044;-65
2021/09/20 02:42:59;;;;;;;16.08;12.73;;;384.70;2329.60;;;;;;5093883;28;20436;-65
2021/09/20 02:45:25;;;;;;;11.43;9.70;;;384.70;2329.60;;;;;;5075837;28;20417;-64
2021/09/20 02:47:51;;;;;;;10.32;8.25;;;384.50;2329.60;;;;;;5093817;28;20064;-65
2021/09/20 02:50:17;;;;;;;12.70;8.23;;;384.50;2329.60;;;;;;5093802;28;20052;-64
2021/09/20 02:52:43;;;;;;;10.20;8.07;;;384.60;2329.60;;;;;;5093936;28;20099;-67
2021/09/20 02:55:10;;;;;;;10.63;7.65;;;384.50;2329.60;;;;;;5093936;28;20031;-64
2021/09/20 02:57:35;;;;;;;11.63;8.00;;;384.50;2329.60;;;;;;5093935;28;20063;-63
2021/09/20 03:00:04;;;;;;;10.10;8.13;;;384.50;2329.60;;;;;;5093766;28;20056;-64
2021/09/20 03:02:30;;;;;;;11.63;8.05;;;384.50;2329.60;;;;;;5093934;28;20129;-64
2021/09/20 03:04:55;;;;;;;11.25;8.05;;;384.40;2329.60;;;;;;5093901;28;20031;-64
2021/09/20 03:07:21;;;;;;;10.55;8.35;;;384.40;2329.60;;;;;;5093851;28;20379;-65
2021/09/20 03:09:46;;;;;;;11.50;8.55;;;384.40;2329.60;;;;;;5093451;28;20020;-65
2021/09/20 03:12:12;;;;;;;11.60;7.97;;;384.30;2329.60;;;;;;5092405;28;20107;-65
2021/09/20 03:14:38;;;;;;;11.05;8.35;;;384.40;2329.60;;;;;;5092351;28;20473;-65
2021/09/20 03:17:04;;;;;;;11.32;8.35;;;384.30;2329.60;;;;;;5092184;28;20784;-64
2021/09/20 03:19:30;;;;;;;16.70;12.57;;;384.40;2329.60;;;;;;5092201;28;20385;-68
2021/09/20 03:21:56;;;;;;;12.27;9.57;;;384.40;2329.60;;;;;;5091381;28;20122;-69
2021/09/20 03:24:22;;;;;;;10.95;8.43;;;384.30;2329.60;;;;;;5092304;28;20047;-64
2021/09/20 03:26:48;;;;;;;12.55;8.98;;;384.30;2329.60;;;;;;5091820;28;20478;-64
2021/09/20 03:29:14;;;;;;;11.00;8.80;;;384.30;2329.60;;;;;;5092076;28;20027;-63
2021/09/20 03:31:40;;;;;;;10.75;8.25;;;384.20;2329.60;;;;;;5074045;28;20020;-64
2021/09/20 03:34:06;;;;;;;13.10;8.75;;;384.30;2329.60;;;;;;5092086;28;20024;-64
2021/09/20 03:36:32;;;;;;;12.60;8.95;;;384.30;2329.60;;;;;;5088842;28;20028;-64
2021/09/20 03:38:57;;;;;;;11.25;8.00;;;384.20;2329.60;;;;;;5092217;28;20020;-64
2021/09/20 03:41:23;;;;;;;11.80;8.80;;;384.20;2329.60;;;;;;5091628;28;20374;-64
2021/09/20 03:43:49;;;;;;;12.15;8.48;;;384.20;2329.60;;;;;;5093825;28;20032;-63
2021/09/20 03:46:15;;;;;;;11.35;8.63;;;384.30;2329.60;;;;;;5096493;28;20028;-65
2021/09/20 03:48:41;;;;;;;11.55;8.25;;;384.20;2329.60;;;;;;5097221;28;20024;-65
2021/09/20 03:51:07;;;;;;;11.70;8.52;;;384.30;2329.60;;;;;;5097081;28;20028;-63
2021/09/20 03:53:34;;;;;;;13.00;8.77;;;384.20;2329.60;;;;;;5078682;28;20042;-65
2021/09/20 03:56:00;;;;;;;10.82;8.43;;;384.20;2329.60;;;;;;5097101;28;20027;-64
2021/09/20 03:58:25;;;;;;;11.68;8.20;;;384.20;2329.60;;;;;;5096823;28;20424;-64
2021/09/20 04:00:51;;;;;;;12.23;8.48;;;384.20;2329.60;;;;;;5096854;28;20055;-63
2021/09/20 04:03:17;;;;;;;11.52;8.77;;;384.20;2329.60;;;;;;5097057;28;20032;-64
2021/09/20 04:05:42;;;;;;;13.00;8.73;;;384.10;2329.60;;;;;;5096784;28;20025;-64
2021/09/20 04:08:10;;;;;;;11.70;8.82;;;384.20;2329.60;;;;;;5096565;28;20044;-66
2021/09/20 04:10:36;;;;;;;12.38;8.40;;;384.20;2329.60;;;;;;5096397;28;20110;-67
2021/09/20 04:13:01;;;;;;;15.15;9.45;;;384.20;2329.60;;;;;;5096857;28;20489;-66
2021/09/20 04:15:27;;;;;;;14.25;9.02;;;384.20;2329.60;;;;;;5096197;28;20081;-66
2021/09/20 04:17:53;;;;;;;13.90;9.32;;;384.20;2329.60;;;;;;5096713;28;20020;-65
2021/09/20 04:20:19;;;;;;;14.02;9.60;;;384.20;2329.60;;;;;;5096459;28;20481;-65
2021/09/20 04:22:44;;;;;;;16.05;9.50;;;384.20;2329.60;;;;;;5078394;28;20051;-66
2021/09/20 04:25:11;;;;;;;15.25;9.80;;;384.00;2329.60;;;;;;5096540;28;20089;-64
2021/09/20 04:27:36;;;;;;;17.58;9.60;;;384.10;2329.60;;;;;;5096330;28;20386;-64
2021/09/20 04:30:04;;;;;;;13.43;9.02;;;384.10;2329.60;;;;;;5095770;28;20030;-65
2021/09/20 04:32:30;;;;;;;14.32;9.95;;;384.00;2329.60;;;;;;5096132;28;20107;-64
2021/09/20 04:34:56;;;;;;;22.92;14.43;;;359.30;2329.60;;;;;;5096084;28;20083;-67
2021/09/20 04:37:22;;;;;;;36.85;21.38;;;359.30;2329.60;;;;;;5096091;28;20024;-65
2021/09/20 04:39:47;;;;;;;28.27;18.10;;;359.20;2329.60;;;;;;5096337;28;20047;-65
2021/09/20 04:42:14;;;;;;;15.80;11.23;;;359.20;2329.60;;;;;;5096146;28;20085;-64
2021/09/20 04:44:40;;;;;;;13.00;10.40;;;359.20;2329.60;;;;;;5096213;28;20103;-64
2021/09/20 04:47:06;;;;;;;13.93;10.18;;;359.20;2329.60;;;;;;5096027;28;20043;-67
2021/09/20 04:49:31;;;;;;;13.40;9.70;;;359.10;2329.60;;;;;;5096211;28;20028;-66
2021/09/20 04:51:57;;;;;;;13.15;8.68;;;359.20;2329.60;;;;;;5096132;28;20428;-64
2021/09/20 04:54:23;;;;;;;17.63;12.32;;;359.10;2329.60;;;;;;5094796;28;20438;-64
2021/09/20 04:56:49;;;;;;;13.73;10.02;;;359.10;2329.60;;;;;;5095319;28;20370;-65
2021/09/20 04:59:15;;;;;;;13.35;8.98;;;359.10;2329.60;;;;;;5095647;28;20028;-68
2021/09/20 05:01:40;;;;;;;15.98;9.15;;;359.10;2329.60;;;;;;5095705;28;20031;-69
2021/09/20 05:04:09;;;;;;;12.52;8.48;;;359.20;2329.60;;;;;;5095922;28;20031;-66
2021/09/20 05:06:35;;;;;;;11.15;8.43;;;359.20;2329.60;;;;;;5095409;28;20047;-66
2021/09/20 05:09:02;;;;;;;11.10;7.90;;;359.20;2329.60;;;;;;5095124;28;20012;-68
2021/09/20 05:11:28;;;;;;;12.45;8.52;;;359.20;2329.60;;;;;;5092321;28;20028;-63
2021/09/20 05:13:54;;;;;;;15.15;9.75;;;359.20;2329.60;;;;;;5095061;28;20027;-65
2021/09/20 05:16:19;;;;;;;23.23;15.18;;;359.10;2329.60;;;;;;5095235;28;20016;-64
2021/09/20 05:18:45;;;;;;;15.13;9.93;;;359.10;2329.60;;;;;;5094014;28;20024;-67
2021/09/20 05:21:11;;;;;;;14.05;9.50;;;359.20;2329.60;;;;;;5094871;28;20048;-67
2021/09/20 05:23:37;;;;;;;19.05;11.98;;;359.20;2329.60;;;;;;5095117;28;20028;-67
2021/09/20 05:26:03;;;;;;;17.02;11.32;;;359.10;2329.60;;;;;;5095101;28;20093;-66
2021/09/20 05:28:29;;;;;;;12.93;9.20;;;359.10;2329.60;;;;;;5095196;28;20058;-66
2021/09/20 05:30:54;;;;;;;12.45;8.80;;;359.20;2329.60;;;;;;5095208;28;20024;-66
2021/09/20 05:33:20;;;;;;;12.38;8.40;;;359.20;2329.60;;;;;;5095328;28;20024;-65
2021/09/20 05:35:46;;;;;;;11.23;7.38;;;359.30;2329.60;;;;;;5095290;28;20077;-64
2021/09/20 05:38:14;;;;;;;10.02;6.97;;;359.20;2329.60;;;;;;5094969;28;20024;-65
2021/09/20 05:40:42;;;;;;;11.55;7.53;;;359.10;2329.60;;;;;;5094821;28;20065;-66
2021/09/20 05:43:08;;;;;;;9.27;6.70;;;359.20;2329.60;;;;;;5094776;28;20486;-65
2021/09/20 05:45:34;;;;;;;11.90;7.97;;;359.10;2329.60;;;;;;5095483;28;20381;-65
2021/09/20 05:48:00;;;;;;;9.77;7.03;;;359.10;2329.60;;;;;;5095003;28;20028;-66
2021/09/20 05:50:27;;;;;;;9.95;7.00;;;359.10;2329.60;;;;;;5094677;28;20355;-65
2021/09/20 05:52:54;;;;;;;10.57;7.60;;;359.10;2329.60;;;;;;5094476;28;20024;-65
2021/09/20 05:55:20;;;;;;;13.88;9.70;;;359.20;2329.60;;;;;;5094678;28;20466;-65
2021/09/20 05:57:46;;;;;;;10.40;6.47;;;359.00;2329.60;;;;;;5094545;28;20099;-66
2021/09/20 06:00:14;;;;;;;9.55;6.32;;;359.00;2329.60;;;;;;5094767;28;20377;-65
2021/09/20 06:02:41;;;;;;;8.23;6.57;;;359.00;2329.60;;;;;;5094389;28;20489;-65
2021/09/20 06:05:08;;;;;;;10.52;6.80;;;359.00;2329.60;;;;;;5094717;28;20358;-66
2021/09/20 06:07:34;;;;;;;10.27;6.80;;;358.90;2329.60;;;;;;5093860;28;20028;-65
2021/09/20 06:10:00;;;;;;;10.57;6.95;;;358.80;2329.60;;;;;;5094553;28;20020;-65
2021/09/20 06:12:26;;;;;;;11.27;7.57;;;358.70;2329.60;;;;;;5094430;28;20034;-64
2021/09/20 06:14:52;;;;;;;11.82;8.25;;;358.70;2329.60;;;;;;5094482;28;20020;-64
2021/09/20 06:17:17;;;;;;;15.38;8.82;;;358.60;2329.60;;;;;;5094421;28;20032;-65
2021/09/20 06:19:43;;;;;;;13.10;8.00;;;358.60;2329.60;;;;;;5094242;28;20020;-64
2021/09/20 06:22:09;;;;;;;10.32;7.80;;;358.70;2329.60;;;;;;5094098;28;20063;-65
2021/09/20 06:24:34;;;;;;;11.65;7.82;;;358.60;2329.60;;;;;;5094014;28;20489;-66
2021/09/20 06:27:00;;;;;;;12.80;8.25;;;358.70;2329.60;;;;;;5094240;28;20039;-69
2021/09/20 06:29:26;;;;;;;11.05;8.18;;;358.60;2329.60;;;;;;5094229;28;20024;-66
2021/09/20 06:31:52;;;;;;;11.07;8.73;;;358.70;2329.60;;;;;;5094213;28;20028;-66
2021/09/20 06:34:17;;;;;;;11.90;8.60;;;358.70;2329.60;;;;;;5093833;28;20085;-69
2021/09/20 06:36:43;;;;;;;12.63;8.60;;;358.80;2329.60;;;;;;5093752;28;20047;-71
2021/09/20 06:39:10;;;;;;;13.77;8.52;;;358.80;2329.60;;;;;;5093763;28;20043;-67
2021/09/20 06:41:36;;;;;;;11.10;7.80;;;358.70;2329.60;;;;;;5094163;28;20361;-66
2021/09/20 06:44:03;;;;;;;11.55;8.75;;;358.70;2329.60;;;;;;5093757;28;20111;-67
2021/09/20 06:46:31;;;;;;;19.08;14.00;;;358.70;2329.60;;;;;;5093940;28;20405;-67
2021/09/20 06:48:59;;;;;;;14.57;9.80;;;358.70;2329.60;;;;;;5093980;28;20024;-66
2021/09/20 06:51:26;;;;;;;11.77;7.93;;;358.70;2329.60;;;;;;5093736;28;20024;-67
2021/09/20 06:53:51;;;;;;;12.20;9.35;;;358.70;2329.60;;;;;;5093795;28;20028;-67
2021/09/20 06:56:18;;;;;;;14.48;10.63;;;358.70;2329.60;;;;;;5093611;28;20020;-68
2021/09/20 06:58:43;;;;;;;10.63;6.95;;;358.70;2329.60;;;;;;5093768;28;20358;-66
2021/09/20 07:01:09;;;;;;;9.95;7.10;;;358.70;2329.60;;;;;;5093625;28;20020;-68
2021/09/20 07:03:35;;;;;;;10.05;7.38;;;358.70;2329.60;;;;;;5093819;28;20024;-66
2021/09/20 07:06:01;;;;;;;9.43;6.85;;;358.60;2329.60;;;;;;5093837;28;20034;-67
2021/09/20 07:08:27;;;;;;;11.02;7.25;;;358.70;2329.60;;;;;;5092773;28;20028;-65
2021/09/20 07:10:53;;;;;;;9.18;6.13;;;358.70;2329.60;;;;;;5092647;28;20070;-66
2021/09/20 07:13:19;;;;;;;7.57;5.78;;;358.70;2329.60;;;;;;5093081;28;20024;-67
2021/09/20 07:15:45;;;;;;;7.72;5.85;;;358.70;2329.60;;;;;;5093027;28;20065;-69
2021/09/20 07:18:10;;;;;;;8.45;6.88;;;358.70;2329.60;;;;;;5093769;28;20032;-64
2021/09/20 07:20:36;;;;;;;7.95;5.95;;;358.70;2329.60;;;;;;5096965;28;20044;-66
2021/09/20 07:23:02;;;;;;;8.10;6.18;;;358.70;2329.60;;;;;;5097005;28;20107;-66
2021/09/20 07:25:28;;;;;;;7.50;5.60;;;358.70;2329.60;;;;;;5097052;28;20539;-67
2021/09/20 07:27:54;;;;;;;10.20;5.97;;;358.70;2329.60;;;;;;5096342;28;20092;-67
2021/09/20 07:30:20;;;;;;;8.18;6.10;;;358.70;2329.60;;;;;;5096982;28;20031;-66
2021/09/20 07:32:48;;;;;;;8.13;6.10;;;358.70;2329.60;;;;;;5096938;28;20028;-68
2021/09/20 07:35:16;;;;;;;6.57;5.30;;;358.70;2329.60;;;;;;5097607;28;20081;-65
2021/09/20 07:37:44;;;;;;;9.07;5.88;;;358.70;2329.60;;;;;;5097247;28;20080;-64
2021/09/20 07:40:11;;;;;;;7.95;6.07;;;358.70;2329.60;;;;;;5096847;28;20024;-66
2021/09/20 07:42:36;;;;;;;6.57;4.88;;;358.80;2329.60;;;;;;5096749;28;20020;-69
2021/09/20 07:45:03;;;;;;;7.55;5.78;;;358.70;2329.60;;;;;;5094188;28;20028;-65
2021/09/20 07:47:29;;;;;;;12.20;6.20;;;358.70;2329.60;;;;;;5078031;28;20571;-67
2021/09/20 07:49:54;;;;;;;8.15;6.20;;;358.80;2329.60;;;;;;5096502;28;20031;-66
2021/09/20 07:52:20;;;;;;;13.38;10.02;;;358.80;2329.60;;;;;;5093842;28;20024;-65
2021/09/20 07:54:46;;;;;;;14.73;10.98;;;358.70;2329.60;;;;;;5096129;28;20020;-65
2021/09/20 07:57:12;;;;;;;14.77;9.80;;;358.70;2329.60;;;;;;5096554;28;20032;-66
2021/09/20 07:59:38;;;;;;;18.15;13.38;;;358.70;2329.60;;;;;;5096393;28;20047;-64
2021/09/20 08:02:03;;;;;;;19.85;14.27;;;358.80;2329.60;;;;;;5096202;28;20085;-65
2021/09/20 08:04:29;;;;;;;14.65;10.68;;;358.70;2329.60;;;;;;5096654;28;20063;-68
2021/09/20 08:06:55;;;;;;;13.63;9.30;;;358.70;2329.60;;;;;;5095767;28;20040;-63
2021/09/20 08:09:21;;;;;;;31.02;19.30;;;358.60;2329.60;;;;;;5078175;28;20020;-64
2021/09/20 08:11:47;;;;;;;20.00;14.30;;;358.70;2329.60;;;;;;5077183;28;20036;-69
2021/09/20 08:14:12;;;;;;;10.07;8.13;;;358.70;2329.60;;;;;;5096108;28;20428;-65
2021/09/20 08:16:38;;;;;;;8.93;7.28;;;358.70;2329.60;;;;;;5096084;28;20028;-66
2021/09/20 08:19:04;;;;;;;9.77;6.97;;;358.70;2329.60;;;;;;5096215;28;20068;-67
2021/09/20 08:21:30;;;;;;;6.63;5.40;;;358.80;2329.60;;;;;;5096219;28;20086;-66
2021/09/20 08:23:55;;;;;;;6.97;5.60;;;358.80;2329.60;;;;;;5096167;28;20027;-67
2021/09/20 08:26:21;;;;;;;5.32;4.53;;;358.80;2329.60;;;;;;5096118;28;20021;-65
2021/09/20 08:28:47;;;;;;;7.05;4.90;;;358.80;2329.60;;;;;;5094501;28;20043;-65
2021/09/20 08:31:13;;;;;;;7.22;5.15;;;358.80;2329.60;;;;;;5094412;28;20020;-65
2021/09/20 08:33:39;;;;;;;6.55;5.60;;;358.70;2329.60;;;;;;5094537;28;20070;-66
2021/09/20 08:36:05;;;;;;;9.98;8.13;;;358.90;2329.60;;;;;;5076229;28;20046;-65
2021/09/20 08:38:30;;;;;;;7.18;5.45;;;358.90;2329.60;;;;;;5094620;28;20030;-66
2021/09/20 08:40:57;;;;;;;8.70;7.60;;;358.90;2329.60;;;;;;5094613;28;20020;-64
2021/09/20 08:43:23;;;;;;;8.63;7.22;;;358.80;2329.60;;;;;;5094823;28;20020;-67
2021/09/20 08:45:49;;;;;;;7.75;6.00;;;358.80;2329.60;;;;;;5094183;28;20112;-67
2021/09/20 08:48:15;;;;;;;9.10;6.18;;;358.90;2329.60;;;;;;5094634;28;20432;-64
2021/09/20 08:50:40;;;;;;;11.82;8.52;;;358.90;2329.60;;;;;;5094000;28;20020;-64
2021/09/20 08:53:08;;;;;;;12.13;9.68;;;359.00;2329.60;;;;;;5094395;28;20032;-65
2021/09/20 08:55:35;;;;;;;9.40;7.10;;;359.10;2329.60;;;;;;5094196;28;20012;-66
2021/09/20 08:58:03;;;;;;;9.70;6.57;;;359.10;2329.60;;;;;;5093963;28;20024;-65
2021/09/20 09:00:29;;;;;;;13.68;9.65;;;359.00;2329.60;;;;;;5094317;28;20017;-64
2021/09/20 09:02:55;;;;;;;11.70;8.25;;;359.00;2329.60;;;;;;5094150;28;20024;-66
2021/09/20 09:05:25;;;;;;;9.60;7.18;;;359.00;2329.60;;;;;;5093999;28;20100;-69
2021/09/20 09:07:56;;;;;;;8.45;6.40;;;359.00;2329.60;;;;;;5093847;28;20107;-65
2021/09/20 09:10:24;;;;;;;7.20;5.82;;;358.90;2329.60;;;;;;5094668;28;20104;-63
2021/09/20 09:12:51;;;;;;;12.50;9.15;;;358.90;2329.60;;;;;;5094758;28;20027;-65
2021/09/20 09:15:20;;;;;;;11.73;8.43;;;359.00;2329.60;;;;;;5075537;28;20016;-66
2021/09/20 09:17:48;;;;;;;11.23;8.32;;;359.00;2329.60;;;;;;5075126;28;20027;-66
2021/09/20 09:20:22;;;;;;;12.20;8.93;;;359.00;2329.60;;;;;;5074663;28;20021;-64
2021/09/20 09:23:02;;;;;;;10.57;7.47;;;359.00;2329.60;;;;;;5074900;28;20078;-65
2021/09/20 09:25:38;;;;;;;8.00;6.15;;;359.00;2329.60;;;;;;5074681;28;20031;-64
2021/09/20 09:28:21;;;;;;;9.95;7.88;;;358.90;2329.60;;;;;;5074573;28;20032;-65
2021/09/20 09:30:51;;;;;;;12.95;9.77;;;359.00;2329.60;;;;;;5074394;28;20139;-65
2021/09/20 09:33:20;;;;;;;9.70;7.18;;;359.10;2329.60;;;;;;5074828;28;20024;-63
2021/09/20 09:35:48;;;;;;;9.10;7.03;;;359.20;2329.60;;;;;;5074973;28;20025;-65
2021/09/20 09:38:15;;;;;;;8.65;6.75;;;359.20;2329.60;;;;;;5074524;28;20048;-64
2021/09/20 09:40:46;;;;;;;8.88;7.32;;;359.30;2329.60;;;;;;5073298;28;20056;-63
2021/09/20 09:43:12;;;;;;;9.27;6.47;;;359.30;2329.60;;;;;;5074210;28;20555;-66
2021/09/20 09:45:38;;;;;;;7.00;6.18;;;384.00;2329.60;;;;;;5074518;28;20064;-65
2021/09/20 09:48:11;;;;;;;8.10;6.28;;;359.30;2329.60;;;;;;5074068;28;20044;-68
2021/09/20 09:50:47;;;;;;;8.20;6.72;;;384.00;2329.60;;;;;;5074181;28;20532;-66
2021/09/20 09:53:30;;;;;;;8.85;6.15;;;359.30;2329.60;;;;;;5073882;28;20021;-66
2021/09/20 09:55:59;;;;;;;7.25;6.28;;;359.20;2329.60;;;;;;5091882;28;20451;-68
2021/09/20 09:58:25;;;;;;;8.55;6.03;;;359.20;2329.60;;;;;;5093962;28;20496;-66
2021/09/20 10:01:10;;;;;;;8.20;5.85;;;359.30;2329.60;;;;;;5092895;28;20050;-67
2021/09/20 10:04:01;;;;;;;7.18;5.97;;;359.30;2329.60;;;;;;5092433;28;20015;-64
2021/09/20 10:06:27;;;;;;;8.10;6.10;;;359.30;2329.60;;;;;;5090764;28;20440;-67
2021/09/20 10:08:52;;;;;;;7.90;6.63;;;359.30;2329.60;;;;;;5093491;28;20020;-63
2021/09/20 10:11:18;;;;;;;7.90;5.93;;;384.00;2329.60;;;;;;5093618;28;20377;-64
2021/09/20 10:13:46;;;;;;;13.95;9.77;;;384.00;2329.60;;;;;;5092861;28;20055;-66
2021/09/20 10:16:12;;;;;;;21.38;15.63;;;384.20;2329.60;;;;;;5074508;28;20489;-65
2021/09/20 10:18:38;;;;;;;20.05;13.05;;;384.20;2329.60;;;;;;5092796;28;20026;-67
2021/09/20 10:21:06;;;;;;;17.98;11.68;;;384.20;2329.60;;;;;;5075058;28;20036;-65
2021/09/20 10:23:32;;;;;;;11.00;7.72;;;384.30;2329.60;;;;;;5093007;28;20028;-65
2021/09/20 10:25:58;;;;;;;8.32;6.53;;;384.30;2329.60;;;;;;5074980;28;20100;-64
2021/09/20 10:28:24;;;;;;;17.38;13.68;;;384.30;2329.60;;;;;;5092995;28;20367;-65
2021/09/20 10:30:50;;;;;;;12.80;10.60;;;384.40;2329.60;;;;;;5093155;28;20374;-66
2021/09/20 10:33:15;;;;;;;10.48;7.43;;;384.50;2329.60;;;;;;5075661;28;20070;-65
2021/09/20 10:35:50;;;;;;;9.05;7.35;;;384.50;2329.60;;;;;;5093424;28;20028;-65
2021/09/20 10:38:23;;;;;;;9.05;7.25;;;384.60;2329.60;;;;;;5093502;28;20020;-66
2021/09/20 10:41:07;;;;;;;15.27;10.38;;;384.60;2329.60;;;;;;5093235;28;20085;-65
2021/09/20 10:43:35;;;;;;;9.90;7.15;;;384.70;2329.60;;;;;;5093694;28;20019;-67
2021/09/20 10:46:02;;;;;;;6.90;5.75;;;384.80;2329.60;;;;;;5093883;28;20358;-67
2021/09/20 10:48:45;;;;;;;11.13;8.50;;;384.70;2329.60;;;;;;5093786;28;20495;-68
2021/09/20 10:51:20;;;;;;;12.07;9.55;;;384.70;2329.60;;;;;;5075335;28;20032;-69
2021/09/20 10:53:47;;;;;;;9.07;7.28;;;384.80;2329.60;;;;;;5075571;28;20024;-71
2021/09/20 10:56:16;;;;;;;6.60;5.90;;;409.60;2355.20;;;;;;5093538;28;20031;-72
2021/09/20 10:58:43;;;;;;;6.47;5.40;;;409.80;2355.20;;;;;;5093636;28;20027;-69
2021/09/20 11:01:11;;;;;;;8.05;6.38;;;409.90;2355.20;;;;;;5093647;28;20028;-70
2021/09/20 11:03:41;;;;;;;9.45;6.60;;;409.90;2355.20;;;;;;5075594;28;20028;-71
2021/09/20 11:06:27;;;;;;;8.07;5.35;;;410.00;2355.20;;;;;;5093135;28;20032;-72
2021/09/20 11:08:59;;;;;;;7.60;5.72;;;410.20;2355.20;;;;;;5093284;28;20017;-73
2021/09/20 11:11:47;;;;;;;7.00;4.90;;;410.40;2355.20;;;;;;5093612;28;20055;-74
2021/09/20 11:14:40;;;;;;;5.97;4.45;;;410.50;2355.20;;;;;;5093366;28;20032;-66
2021/09/20 11:17:21;;;;;;;6.00;4.63;;;410.50;2355.20;;;;;;5075228;28;20119;-65
2021/09/20 11:19:48;;;;;;;6.18;5.15;;;410.40;2355.20;;;;;;5093375;28;20028;-66
2021/09/20 11:22:17;;;;;;;6.72;4.40;;;410.50;2355.20;;;;;;5092932;28;20085;-67
2021/09/20 11:25:18;;;;;;;6.60;4.97;;;410.50;2355.20;;;;;;5093362;28;20028;-66
2021/09/20 11:27:46;;;;;;;7.53;5.75;;;435.30;2355.20;;;;;;4991752;28;20038;-66
2021/09/20 11:30:24;;;;;;;6.68;5.30;;;435.30;2355.20;;;;;;4991867;28;20166;-66
2021/09/20 11:33:02;;;;;;;6.10;4.75;;;435.30;2355.20;;;;;;4991701;28;20034;-66
2021/09/20 11:35:30;;;;;;;5.95;4.90;;;435.30;2355.20;;;;;;4991292;28;20046;-65
2021/09/20 11:38:00;;;;;;;7.13;5.50;;;435.40;2355.20;;;;;;4974748;28;20070;-65
2021/09/20 11:40:28;;;;;;;6.82;5.45;;;435.40;2355.20;;;;;;4990900;28;20072;-65
2021/09/20 11:42:57;;;;;;;8.88;6.97;;;435.20;2355.20;;;;;;4991582;28;20162;-66
2021/09/20 11:45:29;;;;;;;9.95;7.45;;;435.30;2355.20;;;;;;4990480;28;20045;-70
2021/09/20 11:48:01;;;;;;;9.98;7.63;;;435.40;2355.20;;;;;;4989211;28;20049;-63
2021/09/20 11:50:30;;;;;;;8.82;6.93;;;435.30;2355.20;;;;;;4988908;28;20050;-73
2021/09/20 11:52:58;;;;;;;7.45;6.00;;;410.50;2355.20;;;;;;4989442;28;20042;-71
2021/09/20 11:55:27;;;;;;;6.88;5.90;;;435.20;2355.20;;;;;;4988691;28;20113;-70
2021/09/20 11:57:55;;;;;;;14.38;9.82;;;435.20;2355.20;;;;;;4988485;28;20030;-70
2021/09/20 12:00:24;;;;;;;11.00;8.00;;;435.20;2355.20;;;;;;4986697;28;20023;-68
2021/09/20 12:02:53;;;;;;;8.50;6.88;;;410.50;2355.20;;;;;;5086764;28;20035;-65
2021/09/20 12:05:22;;;;;;;9.65;7.15;;;410.40;2355.20;;;;;;5089254;28;20020;-69
2021/09/20 12:07:59;;;;;;;7.07;5.90;;;410.40;2355.20;;;;;;5093448;28;20032;-70
2021/09/20 12:10:31;;;;;;;8.00;6.45;;;410.40;2355.20;;;;;;5091230;28;20480;-71
2021/09/20 12:13:00;;;;;;;9.90;7.60;;;410.50;2355.20;;;;;;5075668;28;20093;-69